sensor_id;sensor_type;location;lat;lon;timestamp;temperature;humidity
74336;DHT22;62755;-33.398;-70.572;2022-09-21T00:02:14;10.90;50.30
74336;DHT22;62755;-33.398;-70.572;2022-09-21T00:04:45;10.90;50.00
74336;DHT22;62755;-33.398;-70.572;2022-09-21T00:07:17;10.80;50.00
74336;DHT22;62755;-33.398;-70.572;2022-09-21T00:09:46;10.80;50.00
74336;DHT22;62755;-33.398;-70.572;2022-09-21T00:12:16;10.80;50.10
74336;DHT22;62755;-33.398;-70.572;2022-09-21T00:14:46;10.80;50.10
74336;DHT22;62755;-33.398;-70.572;2022-09-21T00:17:16;10.80;50.00
74336;DHT22;62755;-33.398;-70.572;2022-09-21T00:19:47;10.70;50.00
74336;DHT22;62755;-33.398;-70.572;2022-09-21T00:22:17;10.70;50.00
74336;DHT22;62755;-33.398;-70.572;2022-09-21T00:24:46;10.60;50.10
74336;DHT22;62755;-33.398;-70.572;2022-09-21T00:27:16;10.60;50.00
74336;DHT22;62755;-33.398;-70.572;2022-09-21T00:29:46;10.60;50.10
74336;DHT22;62755;-33.398;-70.572;2022-09-21T00:32:16;10.60;50.10
74336;DHT22;62755;-33.398;-70.572;2022-09-21T00:34:48;10.60;49.90
74336;DHT22;62755;-33.398;-70.572;2022-09-21T00:37:17;10.60;49.80
74336;DHT22;62755;-33.398;-70.572;2022-09-21T00:39:47;10.70;49.70
74336;DHT22;62755;-33.398;-70.572;2022-09-21T00:42:18;10.60;49.70
74336;DHT22;62755;-33.398;-70.572;2022-09-21T00:44:48;10.60;49.60
74336;DHT22;62755;-33.398;-70.572;2022-09-21T00:47:21;10.70;49.80
74336;DHT22;62755;-33.398;-70.572;2022-09-21T00:49:53;10.70;50.50
74336;DHT22;62755;-33.398;-70.572;2022-09-21T00:52:25;10.80;50.20
74336;DHT22;62755;-33.398;-70.572;2022-09-21T00:54:58;10.90;49.40
74336;DHT22;62755;-33.398;-70.572;2022-09-21T00:57:30;10.90;49.60
74336;DHT22;62755;-33.398;-70.572;2022-09-21T01:00:04;10.80;49.30
74336;DHT22;62755;-33.398;-70.572;2022-09-21T01:02:35;10.80;49.30
74336;DHT22;62755;-33.398;-70.572;2022-09-21T01:05:08;10.80;49.20
74336;DHT22;62755;-33.398;-70.572;2022-09-21T01:07:40;10.70;49.00
74336;DHT22;62755;-33.398;-70.572;2022-09-21T01:10:13;10.70;49.10
74336;DHT22;62755;-33.398;-70.572;2022-09-21T01:12:56;10.80;49.00
74336;DHT22;62755;-33.398;-70.572;2022-09-21T01:15:38;10.70;48.60
74336;DHT22;62755;-33.398;-70.572;2022-09-21T01:18:12;10.80;48.30
74336;DHT22;62755;-33.398;-70.572;2022-09-21T01:21:10;10.70;48.30
74336;DHT22;62755;-33.398;-70.572;2022-09-21T01:27:06;10.50;48.00
74336;DHT22;62755;-33.398;-70.572;2022-09-21T01:29:43;10.40;47.90
74336;DHT22;62755;-33.398;-70.572;2022-09-21T01:32:17;10.30;48.00
74336;DHT22;62755;-33.398;-70.572;2022-09-21T01:34:51;10.30;47.50
74336;DHT22;62755;-33.398;-70.572;2022-09-21T01:37:24;10.30;47.20
74336;DHT22;62755;-33.398;-70.572;2022-09-21T01:40:04;10.30;47.60
74336;DHT22;62755;-33.398;-70.572;2022-09-21T01:42:38;10.40;47.40
74336;DHT22;62755;-33.398;-70.572;2022-09-21T01:45:11;10.40;47.50
74336;DHT22;62755;-33.398;-70.572;2022-09-21T01:47:45;10.40;47.40
74336;DHT22;62755;-33.398;-70.572;2022-09-21T01:50:17;10.50;47.60
74336;DHT22;62755;-33.398;-70.572;2022-09-21T01:52:51;10.50;47.60
74336;DHT22;62755;-33.398;-70.572;2022-09-21T01:55:25;10.50;47.80
74336;DHT22;62755;-33.398;-70.572;2022-09-21T01:57:58;10.50;47.90
74336;DHT22;62755;-33.398;-70.572;2022-09-21T02:00:31;10.50;47.90
74336;DHT22;62755;-33.398;-70.572;2022-09-21T02:03:04;10.50;48.30
74336;DHT22;62755;-33.398;-70.572;2022-09-21T02:05:35;10.50;48.20
74336;DHT22;62755;-33.398;-70.572;2022-09-21T02:08:07;10.60;48.40
74336;DHT22;62755;-33.398;-70.572;2022-09-21T02:10:41;10.50;48.30
74336;DHT22;62755;-33.398;-70.572;2022-09-21T02:13:12;10.50;48.30
74336;DHT22;62755;-33.398;-70.572;2022-09-21T02:15:54;10.40;48.80
74336;DHT22;62755;-33.398;-70.572;2022-09-21T02:18:36;10.40;49.00
74336;DHT22;62755;-33.398;-70.572;2022-09-21T02:21:12;10.40;49.20
74336;DHT22;62755;-33.398;-70.572;2022-09-21T02:23:44;10.50;49.10
74336;DHT22;62755;-33.398;-70.572;2022-09-21T02:26:18;10.50;49.10
74336;DHT22;62755;-33.398;-70.572;2022-09-21T02:28:54;10.50;49.30
74336;DHT22;62755;-33.398;-70.572;2022-09-21T02:31:32;10.60;49.30
74336;DHT22;62755;-33.398;-70.572;2022-09-21T02:34:09;10.70;48.90
74336;DHT22;62755;-33.398;-70.572;2022-09-21T02:36:47;10.70;48.90
74336;DHT22;62755;-33.398;-70.572;2022-09-21T02:39:20;10.60;48.90
74336;DHT22;62755;-33.398;-70.572;2022-09-21T02:41:56;10.60;49.10
74336;DHT22;62755;-33.398;-70.572;2022-09-21T02:44:32;10.60;49.30
74336;DHT22;62755;-33.398;-70.572;2022-09-21T02:47:09;10.50;49.40
74336;DHT22;62755;-33.398;-70.572;2022-09-21T02:49:45;10.50;50.00
74336;DHT22;62755;-33.398;-70.572;2022-09-21T02:52:18;10.50;50.40
74336;DHT22;62755;-33.398;-70.572;2022-09-21T02:54:50;10.50;50.30
74336;DHT22;62755;-33.398;-70.572;2022-09-21T02:57:21;10.40;50.10
74336;DHT22;62755;-33.398;-70.572;2022-09-21T02:59:52;10.40;50.30
74336;DHT22;62755;-33.398;-70.572;2022-09-21T03:02:23;10.40;50.40
74336;DHT22;62755;-33.398;-70.572;2022-09-21T03:04:53;10.50;50.40
74336;DHT22;62755;-33.398;-70.572;2022-09-21T03:07:23;10.40;50.20
74336;DHT22;62755;-33.398;-70.572;2022-09-21T03:09:53;10.40;50.10
74336;DHT22;62755;-33.398;-70.572;2022-09-21T03:12:22;10.30;50.50
74336;DHT22;62755;-33.398;-70.572;2022-09-21T03:14:53;10.20;50.10
74336;DHT22;62755;-33.398;-70.572;2022-09-21T03:17:24;10.30;50.00
74336;DHT22;62755;-33.398;-70.572;2022-09-21T03:19:53;10.00;50.50
74336;DHT22;62755;-33.398;-70.572;2022-09-21T03:22:23;9.90;50.70
74336;DHT22;62755;-33.398;-70.572;2022-09-21T03:24:53;9.90;51.30
74336;DHT22;62755;-33.398;-70.572;2022-09-21T03:27:23;10.00;51.50
74336;DHT22;62755;-33.398;-70.572;2022-09-21T03:29:53;10.10;51.80
74336;DHT22;62755;-33.398;-70.572;2022-09-21T03:32:24;10.20;51.80
74336;DHT22;62755;-33.398;-70.572;2022-09-21T03:34:54;10.30;52.20
74336;DHT22;62755;-33.398;-70.572;2022-09-21T03:37:23;10.40;51.80
74336;DHT22;62755;-33.398;-70.572;2022-09-21T03:39:53;10.50;51.60
74336;DHT22;62755;-33.398;-70.572;2022-09-21T03:42:22;10.50;51.60
74336;DHT22;62755;-33.398;-70.572;2022-09-21T03:44:52;10.30;51.40
74336;DHT22;62755;-33.398;-70.572;2022-09-21T03:47:23;10.30;51.50
74336;DHT22;62755;-33.398;-70.572;2022-09-21T03:49:52;10.40;51.60
74336;DHT22;62755;-33.398;-70.572;2022-09-21T03:52:22;10.50;51.60
74336;DHT22;62755;-33.398;-70.572;2022-09-21T03:54:51;10.50;51.30
74336;DHT22;62755;-33.398;-70.572;2022-09-21T03:57:21;10.50;51.30
74336;DHT22;62755;-33.398;-70.572;2022-09-21T03:59:51;10.50;51.00
74336;DHT22;62755;-33.398;-70.572;2022-09-21T04:02:20;10.40;51.50
74336;DHT22;62755;-33.398;-70.572;2022-09-21T04:04:52;10.40;51.60
74336;DHT22;62755;-33.398;-70.572;2022-09-21T04:07:21;10.40;51.80
74336;DHT22;62755;-33.398;-70.572;2022-09-21T04:09:51;10.40;51.40
74336;DHT22;62755;-33.398;-70.572;2022-09-21T04:12:22;10.40;51.50
74336;DHT22;62755;-33.398;-70.572;2022-09-21T04:14:51;10.40;51.60
74336;DHT22;62755;-33.398;-70.572;2022-09-21T04:17:22;10.40;51.70
74336;DHT22;62755;-33.398;-70.572;2022-09-21T04:19:53;10.40;51.90
74336;DHT22;62755;-33.398;-70.572;2022-09-21T04:22:22;10.40;52.30
74336;DHT22;62755;-33.398;-70.572;2022-09-21T04:24:52;10.40;51.90
74336;DHT22;62755;-33.398;-70.572;2022-09-21T04:27:21;10.40;51.80
74336;DHT22;62755;-33.398;-70.572;2022-09-21T04:29:51;10.30;51.90
74336;DHT22;62755;-33.398;-70.572;2022-09-21T04:32:21;10.30;52.10
74336;DHT22;62755;-33.398;-70.572;2022-09-21T04:34:52;10.20;52.40
74336;DHT22;62755;-33.398;-70.572;2022-09-21T04:37:23;10.20;52.80
74336;DHT22;62755;-33.398;-70.572;2022-09-21T04:39:52;10.20;52.90
74336;DHT22;62755;-33.398;-70.572;2022-09-21T04:42:22;10.20;52.90
74336;DHT22;62755;-33.398;-70.572;2022-09-21T04:44:51;10.20;52.90
74336;DHT22;62755;-33.398;-70.572;2022-09-21T04:47:21;10.20;53.20
74336;DHT22;62755;-33.398;-70.572;2022-09-21T04:49:53;10.20;53.30
74336;DHT22;62755;-33.398;-70.572;2022-09-21T04:52:22;10.20;53.70
74336;DHT22;62755;-33.398;-70.572;2022-09-21T04:54:51;10.30;53.50
74336;DHT22;62755;-33.398;-70.572;2022-09-21T04:57:21;10.30;53.40
74336;DHT22;62755;-33.398;-70.572;2022-09-21T04:59:50;10.40;53.50
74336;DHT22;62755;-33.398;-70.572;2022-09-21T05:02:20;10.30;53.60
74336;DHT22;62755;-33.398;-70.572;2022-09-21T05:04:51;10.30;53.60
74336;DHT22;62755;-33.398;-70.572;2022-09-21T05:07:21;10.20;53.90
74336;DHT22;62755;-33.398;-70.572;2022-09-21T05:09:50;10.20;53.80
74336;DHT22;62755;-33.398;-70.572;2022-09-21T05:12:31;10.20;53.90
74336;DHT22;62755;-33.398;-70.572;2022-09-21T05:15:01;10.30;53.80
74336;DHT22;62755;-33.398;-70.572;2022-09-21T05:17:30;10.30;53.80
74336;DHT22;62755;-33.398;-70.572;2022-09-21T05:20:02;10.30;53.80
74336;DHT22;62755;-33.398;-70.572;2022-09-21T05:22:31;10.20;54.30
74336;DHT22;62755;-33.398;-70.572;2022-09-21T05:25:01;10.10;54.20
74336;DHT22;62755;-33.398;-70.572;2022-09-21T05:27:30;10.10;54.40
74336;DHT22;62755;-33.398;-70.572;2022-09-21T05:30:00;10.00;54.50
74336;DHT22;62755;-33.398;-70.572;2022-09-21T05:32:40;10.00;54.60
74336;DHT22;62755;-33.398;-70.572;2022-09-21T05:35:25;10.00;55.30
74336;DHT22;62755;-33.398;-70.572;2022-09-21T05:38:01;10.00;55.50
74336;DHT22;62755;-33.398;-70.572;2022-09-21T05:40:32;9.80;55.10
74336;DHT22;62755;-33.398;-70.572;2022-09-21T05:43:03;9.60;56.50
74336;DHT22;62755;-33.398;-70.572;2022-09-21T05:45:33;9.40;56.40
74336;DHT22;62755;-33.398;-70.572;2022-09-21T05:48:10;9.40;56.40
74336;DHT22;62755;-33.398;-70.572;2022-09-21T05:50:49;9.40;56.90
74336;DHT22;62755;-33.398;-70.572;2022-09-21T05:56:15;9.70;56.40
74336;DHT22;62755;-33.398;-70.572;2022-09-21T05:58:52;9.70;55.90
74336;DHT22;62755;-33.398;-70.572;2022-09-21T06:01:34;9.80;55.70
74336;DHT22;62755;-33.398;-70.572;2022-09-21T06:04:10;9.90;55.90
74336;DHT22;62755;-33.398;-70.572;2022-09-21T06:06:41;10.00;55.30
74336;DHT22;62755;-33.398;-70.572;2022-09-21T06:09:11;10.00;55.00
74336;DHT22;62755;-33.398;-70.572;2022-09-21T06:11:40;10.00;54.80
74336;DHT22;62755;-33.398;-70.572;2022-09-21T06:14:10;10.00;54.70
74336;DHT22;62755;-33.398;-70.572;2022-09-21T06:16:40;10.00;54.80
74336;DHT22;62755;-33.398;-70.572;2022-09-21T06:19:11;10.00;54.80
74336;DHT22;62755;-33.398;-70.572;2022-09-21T06:21:43;10.00;54.80
74336;DHT22;62755;-33.398;-70.572;2022-09-21T06:24:14;10.00;54.80
74336;DHT22;62755;-33.398;-70.572;2022-09-21T06:26:43;10.00;54.90
74336;DHT22;62755;-33.398;-70.572;2022-09-21T06:29:13;9.90;55.00
74336;DHT22;62755;-33.398;-70.572;2022-09-21T06:31:43;9.90;55.00
74336;DHT22;62755;-33.398;-70.572;2022-09-21T06:34:12;9.80;54.80
74336;DHT22;62755;-33.398;-70.572;2022-09-21T06:36:44;9.80;54.90
74336;DHT22;62755;-33.398;-70.572;2022-09-21T06:39:13;9.80;54.80
74336;DHT22;62755;-33.398;-70.572;2022-09-21T06:41:43;9.80;54.80
74336;DHT22;62755;-33.398;-70.572;2022-09-21T06:44:12;9.70;55.10
74336;DHT22;62755;-33.398;-70.572;2022-09-21T06:46:42;9.70;55.10
74336;DHT22;62755;-33.398;-70.572;2022-09-21T06:49:11;9.80;54.70
74336;DHT22;62755;-33.398;-70.572;2022-09-21T06:51:43;9.70;54.70
74336;DHT22;62755;-33.398;-70.572;2022-09-21T06:54:12;9.70;54.90
74336;DHT22;62755;-33.398;-70.572;2022-09-21T06:56:42;9.70;55.00
74336;DHT22;62755;-33.398;-70.572;2022-09-21T06:59:11;9.70;54.90
74336;DHT22;62755;-33.398;-70.572;2022-09-21T07:01:40;9.70;55.10
74336;DHT22;62755;-33.398;-70.572;2022-09-21T07:04:10;9.80;55.00
74336;DHT22;62755;-33.398;-70.572;2022-09-21T07:06:39;9.70;55.00
74336;DHT22;62755;-33.398;-70.572;2022-09-21T07:09:11;9.70;55.10
74336;DHT22;62755;-33.398;-70.572;2022-09-21T07:11:40;9.70;55.00
74336;DHT22;62755;-33.398;-70.572;2022-09-21T07:14:10;9.70;54.90
74336;DHT22;62755;-33.398;-70.572;2022-09-21T07:16:40;9.60;55.00
74336;DHT22;62755;-33.398;-70.572;2022-09-21T07:19:09;9.60;55.00
74336;DHT22;62755;-33.398;-70.572;2022-09-21T07:21:39;9.60;55.20
74336;DHT22;62755;-33.398;-70.572;2022-09-21T07:24:10;9.70;55.50
74336;DHT22;62755;-33.398;-70.572;2022-09-21T07:26:41;9.70;55.60
74336;DHT22;62755;-33.398;-70.572;2022-09-21T07:29:10;9.70;55.30
74336;DHT22;62755;-33.398;-70.572;2022-09-21T07:31:42;9.60;55.40
74336;DHT22;62755;-33.398;-70.572;2022-09-21T07:34:12;9.60;55.50
74336;DHT22;62755;-33.398;-70.572;2022-09-21T07:36:42;9.60;55.60
74336;DHT22;62755;-33.398;-70.572;2022-09-21T07:39:13;9.50;55.60
74336;DHT22;62755;-33.398;-70.572;2022-09-21T07:41:42;9.40;55.40
74336;DHT22;62755;-33.398;-70.572;2022-09-21T07:44:12;9.40;55.70
74336;DHT22;62755;-33.398;-70.572;2022-09-21T07:46:41;9.40;55.70
74336;DHT22;62755;-33.398;-70.572;2022-09-21T07:49:13;9.30;55.70
74336;DHT22;62755;-33.398;-70.572;2022-09-21T07:51:42;9.30;55.60
74336;DHT22;62755;-33.398;-70.572;2022-09-21T07:54:14;9.20;55.60
74336;DHT22;62755;-33.398;-70.572;2022-09-21T07:56:43;9.20;55.80
74336;DHT22;62755;-33.398;-70.572;2022-09-21T07:59:33;9.10;56.10
74336;DHT22;62755;-33.398;-70.572;2022-09-21T08:02:01;9.00;56.20
74336;DHT22;62755;-33.398;-70.572;2022-09-21T08:04:30;9.00;56.00
74336;DHT22;62755;-33.398;-70.572;2022-09-21T08:07:00;9.00;55.90
74336;DHT22;62755;-33.398;-70.572;2022-09-21T08:09:31;8.90;56.00
74336;DHT22;62755;-33.398;-70.572;2022-09-21T08:12:01;8.80;56.10
74336;DHT22;62755;-33.398;-70.572;2022-09-21T08:14:30;8.80;56.30
74336;DHT22;62755;-33.398;-70.572;2022-09-21T08:17:01;8.80;56.40
74336;DHT22;62755;-33.398;-70.572;2022-09-21T08:19:30;8.80;56.40
74336;DHT22;62755;-33.398;-70.572;2022-09-21T08:22:02;8.80;56.40
74336;DHT22;62755;-33.398;-70.572;2022-09-21T08:24:33;8.80;56.50
74336;DHT22;62755;-33.398;-70.572;2022-09-21T08:27:03;8.80;56.60
74336;DHT22;62755;-33.398;-70.572;2022-09-21T08:29:34;8.80;56.50
74336;DHT22;62755;-33.398;-70.572;2022-09-21T08:32:04;8.80;56.60
74336;DHT22;62755;-33.398;-70.572;2022-09-21T08:34:33;8.80;56.60
74336;DHT22;62755;-33.398;-70.572;2022-09-21T08:37:03;8.70;56.80
74336;DHT22;62755;-33.398;-70.572;2022-09-21T08:39:34;8.70;57.00
74336;DHT22;62755;-33.398;-70.572;2022-09-21T08:42:37;8.60;57.10
74336;DHT22;62755;-33.398;-70.572;2022-09-21T08:45:13;8.60;57.90
74336;DHT22;62755;-33.398;-70.572;2022-09-21T08:47:46;8.60;57.60
74336;DHT22;62755;-33.398;-70.572;2022-09-21T08:50:30;8.60;57.40
74336;DHT22;62755;-33.398;-70.572;2022-09-21T08:53:05;8.60;57.90
74336;DHT22;62755;-33.398;-70.572;2022-09-21T08:55:37;8.60;57.70
74336;DHT22;62755;-33.398;-70.572;2022-09-21T08:58:18;8.60;57.70
74336;DHT22;62755;-33.398;-70.572;2022-09-21T09:00:52;8.60;58.20
74336;DHT22;62755;-33.398;-70.572;2022-09-21T09:03:28;8.60;57.70
74336;DHT22;62755;-33.398;-70.572;2022-09-21T09:06:02;8.60;58.30
74336;DHT22;62755;-33.398;-70.572;2022-09-21T09:09:06;8.50;57.70
74336;DHT22;62755;-33.398;-70.572;2022-09-21T09:12:01;8.40;58.80
74336;DHT22;62755;-33.398;-70.572;2022-09-21T09:14:48;8.20;59.60
74336;DHT22;62755;-33.398;-70.572;2022-09-21T09:17:30;8.20;59.20
74336;DHT22;62755;-33.398;-70.572;2022-09-21T09:20:04;8.30;58.90
74336;DHT22;62755;-33.398;-70.572;2022-09-21T09:22:43;8.30;58.50
74336;DHT22;62755;-33.398;-70.572;2022-09-21T09:25:18;8.30;58.70
74336;DHT22;62755;-33.398;-70.572;2022-09-21T09:27:52;8.30;58.40
74336;DHT22;62755;-33.398;-70.572;2022-09-21T09:30:25;8.40;58.40
74336;DHT22;62755;-33.398;-70.572;2022-09-21T09:32:57;8.40;58.20
74336;DHT22;62755;-33.398;-70.572;2022-09-21T09:35:31;8.40;58.30
74336;DHT22;62755;-33.398;-70.572;2022-09-21T09:38:08;8.40;58.20
74336;DHT22;62755;-33.398;-70.572;2022-09-21T09:40:57;8.30;58.40
74336;DHT22;62755;-33.398;-70.572;2022-09-21T09:43:41;8.20;59.00
74336;DHT22;62755;-33.398;-70.572;2022-09-21T09:46:24;8.20;59.00
74336;DHT22;62755;-33.398;-70.572;2022-09-21T09:49:14;8.20;59.20
74336;DHT22;62755;-33.398;-70.572;2022-09-21T09:51:45;8.30;59.10
74336;DHT22;62755;-33.398;-70.572;2022-09-21T09:54:17;8.30;58.80
74336;DHT22;62755;-33.398;-70.572;2022-09-21T09:56:47;8.30;58.80
74336;DHT22;62755;-33.398;-70.572;2022-09-21T09:59:28;8.30;58.60
74336;DHT22;62755;-33.398;-70.572;2022-09-21T10:02:01;8.40;59.10
74336;DHT22;62755;-33.398;-70.572;2022-09-21T10:04:31;8.40;58.90
74336;DHT22;62755;-33.398;-70.572;2022-09-21T10:07:02;8.40;58.70
74336;DHT22;62755;-33.398;-70.572;2022-09-21T10:09:32;8.40;58.70
74336;DHT22;62755;-33.398;-70.572;2022-09-21T10:12:13;8.40;58.70
74336;DHT22;62755;-33.398;-70.572;2022-09-21T10:14:51;8.40;58.60
74336;DHT22;62755;-33.398;-70.572;2022-09-21T10:17:22;8.40;59.10
74336;DHT22;62755;-33.398;-70.572;2022-09-21T10:19:59;8.40;58.70
74336;DHT22;62755;-33.398;-70.572;2022-09-21T10:22:29;8.50;59.10
74336;DHT22;62755;-33.398;-70.572;2022-09-21T10:24:58;8.50;58.40
74336;DHT22;62755;-33.398;-70.572;2022-09-21T10:27:34;8.50;58.40
74336;DHT22;62755;-33.398;-70.572;2022-09-21T10:30:11;8.60;58.10
74336;DHT22;62755;-33.398;-70.572;2022-09-21T10:32:58;8.50;58.20
74336;DHT22;62755;-33.398;-70.572;2022-09-21T10:35:28;8.50;58.10
74336;DHT22;62755;-33.398;-70.572;2022-09-21T10:38:11;8.50;58.00
74336;DHT22;62755;-33.398;-70.572;2022-09-21T10:40:44;8.50;58.40
74336;DHT22;62755;-33.398;-70.572;2022-09-21T10:43:27;8.40;58.00
74336;DHT22;62755;-33.398;-70.572;2022-09-21T10:46:00;8.40;58.50
74336;DHT22;62755;-33.398;-70.572;2022-09-21T10:48:30;8.30;58.20
74336;DHT22;62755;-33.398;-70.572;2022-09-21T10:50:59;8.30;58.40
74336;DHT22;62755;-33.398;-70.572;2022-09-21T10:53:30;8.30;58.50
74336;DHT22;62755;-33.398;-70.572;2022-09-21T10:56:03;8.30;58.30
74336;DHT22;62755;-33.398;-70.572;2022-09-21T10:58:34;8.30;58.50
74336;DHT22;62755;-33.398;-70.572;2022-09-21T11:01:19;8.30;58.50
74336;DHT22;62755;-33.398;-70.572;2022-09-21T11:03:52;8.40;58.50
74336;DHT22;62755;-33.398;-70.572;2022-09-21T11:06:27;8.30;58.40
74336;DHT22;62755;-33.398;-70.572;2022-09-21T11:09:02;8.30;58.40
74336;DHT22;62755;-33.398;-70.572;2022-09-21T11:11:45;8.30;58.30
74336;DHT22;62755;-33.398;-70.572;2022-09-21T11:14:35;8.40;58.20
74336;DHT22;62755;-33.398;-70.572;2022-09-21T11:17:14;8.30;58.20
74336;DHT22;62755;-33.398;-70.572;2022-09-21T11:19:48;8.40;58.00
74336;DHT22;62755;-33.398;-70.572;2022-09-21T11:22:28;8.30;57.80
74336;DHT22;62755;-33.398;-70.572;2022-09-21T11:25:07;8.30;57.70
74336;DHT22;62755;-33.398;-70.572;2022-09-21T11:27:40;8.30;57.90
74336;DHT22;62755;-33.398;-70.572;2022-09-21T11:30:11;8.30;58.00
74336;DHT22;62755;-33.398;-70.572;2022-09-21T11:32:56;8.30;57.90
74336;DHT22;62755;-33.398;-70.572;2022-09-21T11:35:32;8.30;58.30
74336;DHT22;62755;-33.398;-70.572;2022-09-21T11:38:12;8.40;58.70
74336;DHT22;62755;-33.398;-70.572;2022-09-21T11:41:07;8.30;58.40
74336;DHT22;62755;-33.398;-70.572;2022-09-21T11:43:58;8.30;58.20
74336;DHT22;62755;-33.398;-70.572;2022-09-21T11:46:46;8.30;58.00
74336;DHT22;62755;-33.398;-70.572;2022-09-21T11:49:28;8.30;57.90
74336;DHT22;62755;-33.398;-70.572;2022-09-21T11:52:14;8.20;58.40
74336;DHT22;62755;-33.398;-70.572;2022-09-21T11:55:22;8.20;58.50
74336;DHT22;62755;-33.398;-70.572;2022-09-21T11:58:03;8.20;58.70
74336;DHT22;62755;-33.398;-70.572;2022-09-21T12:00:46;8.20;58.50
74336;DHT22;62755;-33.398;-70.572;2022-09-21T12:03:47;8.30;58.90
74336;DHT22;62755;-33.398;-70.572;2022-09-21T12:06:28;8.40;58.40
74336;DHT22;62755;-33.398;-70.572;2022-09-21T12:09:17;8.40;58.70
74336;DHT22;62755;-33.398;-70.572;2022-09-21T12:11:56;8.40;58.90
74336;DHT22;62755;-33.398;-70.572;2022-09-21T12:14:36;8.50;58.20
74336;DHT22;62755;-33.398;-70.572;2022-09-21T12:17:09;8.60;58.00
74336;DHT22;62755;-33.398;-70.572;2022-09-21T12:19:46;8.60;58.40
74336;DHT22;62755;-33.398;-70.572;2022-09-21T12:22:23;8.60;58.00
74336;DHT22;62755;-33.398;-70.572;2022-09-21T12:24:56;8.60;58.20
74336;DHT22;62755;-33.398;-70.572;2022-09-21T12:27:31;8.60;57.90
74336;DHT22;62755;-33.398;-70.572;2022-09-21T12:30:06;8.80;57.90
74336;DHT22;62755;-33.398;-70.572;2022-09-21T12:32:46;8.80;57.80
74336;DHT22;62755;-33.398;-70.572;2022-09-21T12:35:24;8.90;57.50
74336;DHT22;62755;-33.398;-70.572;2022-09-21T12:37:58;8.90;56.30
74336;DHT22;62755;-33.398;-70.572;2022-09-21T12:40:36;8.90;54.70
74336;DHT22;62755;-33.398;-70.572;2022-09-21T12:43:16;8.90;54.60
74336;DHT22;62755;-33.398;-70.572;2022-09-21T12:45:54;8.90;54.10
74336;DHT22;62755;-33.398;-70.572;2022-09-21T12:48:29;8.70;55.20
74336;DHT22;62755;-33.398;-70.572;2022-09-21T12:51:04;8.80;55.70
74336;DHT22;62755;-33.398;-70.572;2022-09-21T12:53:39;8.90;55.40
74336;DHT22;62755;-33.398;-70.572;2022-09-21T12:56:14;8.90;54.70
74336;DHT22;62755;-33.398;-70.572;2022-09-21T12:59:03;8.90;54.50
74336;DHT22;62755;-33.398;-70.572;2022-09-21T13:01:39;9.00;54.20
74336;DHT22;62755;-33.398;-70.572;2022-09-21T13:07:37;8.90;53.10
74336;DHT22;62755;-33.398;-70.572;2022-09-21T13:10:18;9.00;53.70
74336;DHT22;62755;-33.398;-70.572;2022-09-21T13:12:51;9.20;53.30
74336;DHT22;62755;-33.398;-70.572;2022-09-21T13:15:25;9.30;52.70
74336;DHT22;62755;-33.398;-70.572;2022-09-21T13:17:59;9.40;53.10
74336;DHT22;62755;-33.398;-70.572;2022-09-21T13:20:34;9.40;52.50
74336;DHT22;62755;-33.398;-70.572;2022-09-21T13:23:09;9.50;52.90
74336;DHT22;62755;-33.398;-70.572;2022-09-21T13:25:47;9.50;53.10
74336;DHT22;62755;-33.398;-70.572;2022-09-21T13:28:20;9.60;52.90
74336;DHT22;62755;-33.398;-70.572;2022-09-21T13:31:27;9.60;52.80
74336;DHT22;62755;-33.398;-70.572;2022-09-21T13:34:20;9.80;52.70
74336;DHT22;62755;-33.398;-70.572;2022-09-21T13:46:53;10.00;52.20
74336;DHT22;62755;-33.398;-70.572;2022-09-21T13:49:27;10.10;52.50
74336;DHT22;62755;-33.398;-70.572;2022-09-21T13:52:00;10.10;52.20
74336;DHT22;62755;-33.398;-70.572;2022-09-21T13:54:33;10.20;52.10
74336;DHT22;62755;-33.398;-70.572;2022-09-21T13:57:14;10.30;51.80
74336;DHT22;62755;-33.398;-70.572;2022-09-21T14:00:03;10.40;51.50
74336;DHT22;62755;-33.398;-70.572;2022-09-21T14:02:34;10.40;51.50
74336;DHT22;62755;-33.398;-70.572;2022-09-21T14:05:08;10.60;51.20
74336;DHT22;62755;-33.398;-70.572;2022-09-21T14:07:46;10.60;50.40
74336;DHT22;62755;-33.398;-70.572;2022-09-21T14:10:22;10.60;50.70
74336;DHT22;62755;-33.398;-70.572;2022-09-21T14:12:53;10.70;50.60
74336;DHT22;62755;-33.398;-70.572;2022-09-21T14:15:35;10.70;50.60
74336;DHT22;62755;-33.398;-70.572;2022-09-21T14:18:17;10.70;50.50
74336;DHT22;62755;-33.398;-70.572;2022-09-21T14:21:12;10.70;50.30
74336;DHT22;62755;-33.398;-70.572;2022-09-21T14:27:00;11.00;49.20
74336;DHT22;62755;-33.398;-70.572;2022-09-21T14:29:37;11.00;49.20
74336;DHT22;62755;-33.398;-70.572;2022-09-21T14:32:16;11.10;49.20
74336;DHT22;62755;-33.398;-70.572;2022-09-21T14:34:48;11.10;49.00
74336;DHT22;62755;-33.398;-70.572;2022-09-21T14:37:30;11.10;49.50
74336;DHT22;62755;-33.398;-70.572;2022-09-21T14:40:02;11.40;50.70
74336;DHT22;62755;-33.398;-70.572;2022-09-21T14:42:32;11.80;51.00
74336;DHT22;62755;-33.398;-70.572;2022-09-21T14:45:03;12.50;54.40
74336;DHT22;62755;-33.398;-70.572;2022-09-21T14:47:47;14.20;52.70
74336;DHT22;62755;-33.398;-70.572;2022-09-21T14:50:31;16.50;43.90
74336;DHT22;62755;-33.398;-70.572;2022-09-21T14:56:27;21.40;33.30
74336;DHT22;62755;-33.398;-70.572;2022-09-21T15:02:19;24.00;31.60
74336;DHT22;62755;-33.398;-70.572;2022-09-21T15:07:48;26.40;28.20
74336;DHT22;62755;-33.398;-70.572;2022-09-21T15:10:49;27.20;28.10
74336;DHT22;62755;-33.398;-70.572;2022-09-21T15:13:50;28.10;25.10
74336;DHT22;62755;-33.398;-70.572;2022-09-21T15:16:34;28.60;24.00
74336;DHT22;62755;-33.398;-70.572;2022-09-21T15:19:19;28.80;24.70
74336;DHT22;62755;-33.398;-70.572;2022-09-21T15:21:52;29.00;24.10
74336;DHT22;62755;-33.398;-70.572;2022-09-21T15:24:26;28.90;23.90
74336;DHT22;62755;-33.398;-70.572;2022-09-21T15:27:04;28.70;24.10
74336;DHT22;62755;-33.398;-70.572;2022-09-21T15:29:36;28.80;23.90
74336;DHT22;62755;-33.398;-70.572;2022-09-21T15:32:06;29.10;24.10
74336;DHT22;62755;-33.398;-70.572;2022-09-21T15:34:36;29.00;23.70
74336;DHT22;62755;-33.398;-70.572;2022-09-21T15:37:14;28.80;23.90
74336;DHT22;62755;-33.398;-70.572;2022-09-21T15:39:44;28.50;23.30
74336;DHT22;62755;-33.398;-70.572;2022-09-21T15:42:18;28.10;23.00
74336;DHT22;62755;-33.398;-70.572;2022-09-21T15:44:49;27.50;23.30
74336;DHT22;62755;-33.398;-70.572;2022-09-21T15:47:23;26.60;24.20
74336;DHT22;62755;-33.398;-70.572;2022-09-21T15:49:55;26.00;24.40
74336;DHT22;62755;-33.398;-70.572;2022-09-21T15:52:31;25.20;25.00
74336;DHT22;62755;-33.398;-70.572;2022-09-21T15:55:08;24.40;25.10
74336;DHT22;62755;-33.398;-70.572;2022-09-21T15:57:40;23.60;25.70
74336;DHT22;62755;-33.398;-70.572;2022-09-21T16:00:22;23.00;26.40
74336;DHT22;62755;-33.398;-70.572;2022-09-21T16:02:57;22.60;26.40
74336;DHT22;62755;-33.398;-70.572;2022-09-21T16:08:28;22.00;27.10
74336;DHT22;62755;-33.398;-70.572;2022-09-21T16:11:14;21.90;26.60
74336;DHT22;62755;-33.398;-70.572;2022-09-21T16:13:45;21.70;25.70
74336;DHT22;62755;-33.398;-70.572;2022-09-21T16:16:31;21.50;26.90